Airport details for: LGMK (Greece)

Metar

LGMK 170150Z 36011KT CAVOK 18/15 Q1022

General details

ICAO: LGMK
IATA: JMK
Name (city): Mikonos
Major:
Country: Greece
vACC: Hellenic vACC
Description:

Mykonos Island National Airport (IATA: JMK, ICAO: LGMK) is an airport in Mykonos, Greece.

The airport is located 4 kilometers from the town of Mykonos.

The transfer time from the town to the airport is about 10 minutes. There is no public service operating from the town to the airport. A taxi rank is situated in front of the terminal. The cost of a taxi to the town is between €5 and €10. Many hotels also offer a transfer to the airport by private mini buses.

During the off-peak tourist season the airport has limited flight connections and operating hours. On the other hand, during the 2014 peak summer season it was found necessary to severely limit general aviation activity, allowing only a technical stop of 2 hours.

Scenery links:
FS9 scenery:
FSX/P3D scenery: Download
XP scenery:
Elevation: 405 ft.
Transition altitude: 6000 ft.
MSA: 6200 ft.
Latitude: 37.437222
Longitude: 25.347222
LGMK Charts
LGMK Notams
LGMK Online stations

Runways

Number Course Length Elevation Lat Lon ILS ILS freq ILS FAC GP
16 157° 6240ft / 1902 m 395ft 37.443253 25.344658 - - 3.0°
34 337° 6240ft / 1902 m 388ft 37.427083 25.351814 - - 3.0°